createdAt,value
2023-04-16T00:02:01.720Z,8.43
2023-04-16T00:04:28.509Z,7.57
2023-04-16T00:06:55.484Z,7.67
2023-04-16T00:09:22.155Z,9.13
2023-04-16T00:11:48.772Z,7.40
2023-04-16T00:14:15.657Z,8.10
2023-04-16T00:16:42.323Z,7.87
2023-04-16T00:19:09.106Z,8.27
2023-04-16T00:21:36.059Z,8.77
2023-04-16T00:24:02.643Z,10.67
2023-04-16T00:26:29.246Z,13.80
2023-04-16T00:28:56.057Z,9.43
2023-04-16T00:31:29.204Z,8.40
2023-04-16T00:33:56.273Z,11.13
2023-04-16T00:36:27.135Z,8.43
2023-04-16T00:38:54.001Z,8.57
2023-04-16T00:41:20.701Z,9.90
2023-04-16T00:43:51.865Z,12.60
2023-04-16T00:46:22.281Z,8.57
2023-04-16T00:48:49.026Z,7.80
2023-04-16T00:51:15.780Z,9.00
2023-04-16T00:53:43.754Z,7.47
2023-04-16T00:56:10.335Z,8.00
2023-04-16T00:58:36.954Z,7.80
2023-04-16T01:01:03.656Z,7.57
2023-04-16T01:03:40.430Z,7.13
2023-04-16T01:06:07.636Z,7.50
2023-04-16T01:08:34.342Z,8.63
2023-04-16T01:11:01.368Z,7.60
2023-04-16T01:13:28.930Z,7.77
2023-04-16T01:15:55.755Z,8.83
2023-04-16T01:18:22.618Z,7.57
2023-04-16T01:20:49.628Z,7.77
2023-04-16T01:23:16.456Z,7.47
2023-04-16T01:25:43.982Z,8.40
2023-04-16T01:28:10.914Z,8.60
2023-04-16T01:30:37.472Z,8.53
2023-04-16T01:33:21.070Z,9.00
2023-04-16T01:35:47.812Z,9.20
2023-04-16T01:38:15.708Z,9.10
2023-04-16T01:40:42.362Z,8.23
2023-04-16T02:15:17.353Z,9.60
2023-04-16T02:17:46.784Z,10.17
2023-04-16T02:20:13.626Z,10.07
2023-04-16T02:22:50.521Z,9.87
2023-04-16T02:25:19.917Z,10.27
2023-04-16T02:27:46.989Z,9.33
2023-04-16T02:30:35.343Z,9.77
2023-04-16T02:33:05.547Z,10.20
2023-04-16T02:35:32.687Z,10.23
2023-04-16T02:37:59.659Z,10.27
2023-04-16T02:40:26.528Z,10.37
2023-04-16T02:42:53.981Z,9.97
2023-04-16T02:45:21.826Z,10.50
2023-04-16T02:47:48.751Z,10.97
2023-04-16T02:50:15.536Z,10.70
2023-04-16T02:52:42.358Z,9.47
2023-04-16T02:55:09.347Z,10.97
2023-04-16T02:57:36.017Z,10.53
2023-04-16T03:00:04.664Z,10.40
2023-04-16T03:02:31.641Z,10.93
2023-04-16T03:04:58.363Z,10.60
2023-04-16T03:07:25.062Z,11.30
2023-04-16T03:09:52.218Z,10.70
2023-04-16T03:12:18.857Z,11.50
2023-04-16T03:14:46.301Z,11.27
2023-04-16T03:17:13.146Z,12.03
2023-04-16T03:19:39.785Z,11.47
2023-04-16T03:22:11.300Z,11.50
2023-04-16T03:24:38.743Z,11.87
2023-04-16T03:27:05.370Z,11.27
2023-04-16T03:29:33.601Z,11.70
2023-04-16T03:32:00.307Z,11.73
2023-04-16T03:34:27.003Z,11.60
2023-04-16T03:36:53.636Z,11.43
2023-04-16T03:39:20.661Z,12.40
2023-04-16T03:41:47.418Z,10.83
2023-04-16T03:44:14.480Z,12.17
2023-04-16T03:46:41.729Z,11.60
2023-04-16T03:49:08.633Z,12.13
2023-04-16T03:51:35.611Z,11.80
2023-04-16T03:54:02.867Z,12.03
2023-04-16T03:56:29.529Z,11.70
2023-04-16T03:58:56.688Z,12.23
2023-04-16T04:01:23.424Z,12.20
2023-04-16T04:03:51.598Z,11.50
2023-04-16T04:06:18.495Z,12.97
2023-04-16T04:08:45.129Z,11.83
2023-04-16T04:11:13.430Z,12.30
2023-04-16T04:13:41.346Z,11.30
2023-04-16T04:16:07.997Z,12.10
2023-04-16T04:18:34.736Z,12.03
2023-04-16T04:21:05.732Z,12.20
2023-04-16T04:23:33.227Z,12.33
2023-04-16T04:26:00.072Z,12.33
2023-04-16T04:28:28.004Z,12.37
2023-04-16T04:30:54.652Z,11.90
2023-04-16T04:33:21.424Z,12.10
2023-04-16T04:35:48.137Z,13.17
2023-04-16T04:38:19.765Z,12.53
2023-04-16T04:40:50.382Z,12.83
2023-04-16T04:43:19.346Z,12.70
2023-04-16T04:45:46.403Z,11.90
2023-04-16T04:48:13.402Z,12.53
2023-04-16T04:50:41.271Z,11.53
2023-04-16T04:53:11.563Z,11.60
2023-04-16T04:55:39.366Z,12.10
2023-04-16T04:58:06.280Z,11.80
2023-04-16T05:00:33.365Z,11.47
2023-04-16T05:03:03.706Z,11.73
2023-04-16T05:05:30.503Z,11.27
2023-04-16T05:07:57.089Z,11.70
2023-04-16T05:10:24.542Z,12.50
2023-04-16T05:12:51.166Z,12.47
2023-04-16T05:15:17.839Z,12.90
2023-04-16T05:17:44.534Z,12.90
2023-04-16T05:20:11.212Z,12.57
2023-04-16T05:22:37.919Z,12.97
2023-04-16T05:25:04.702Z,12.57
2023-04-16T05:27:31.364Z,11.50
2023-04-16T05:29:57.972Z,11.67
2023-04-16T05:32:28.044Z,11.40
2023-04-16T05:34:54.756Z,11.20
2023-04-16T05:37:21.384Z,11.43
2023-04-16T05:39:48.114Z,11.90
2023-04-16T05:42:14.698Z,10.43
2023-04-16T05:44:41.355Z,11.13
2023-04-16T05:47:09.557Z,11.40
2023-04-16T05:49:37.408Z,11.43
2023-04-16T05:52:07.523Z,11.73
2023-04-16T05:54:35.244Z,11.63
2023-04-16T05:57:02.385Z,12.27
2023-04-16T05:59:30.479Z,11.80
2023-04-16T06:01:57.920Z,12.33
2023-04-16T06:04:25.342Z,13.30
2023-04-16T06:06:52.082Z,12.50
2023-04-16T06:09:19.141Z,12.50
2023-04-16T06:11:46.089Z,13.47
2023-04-16T06:14:12.730Z,12.43
2023-04-16T06:16:39.382Z,12.23
2023-04-16T06:19:05.967Z,12.20
2023-04-16T06:21:32.654Z,12.70
2023-04-16T06:23:59.376Z,12.30
2023-04-16T06:26:25.970Z,12.53
2023-04-16T06:28:52.607Z,12.70
2023-04-16T06:31:19.343Z,12.13
2023-04-16T06:33:46.229Z,12.57
2023-04-16T06:36:12.832Z,12.43
2023-04-16T06:38:39.565Z,12.40
2023-04-16T06:41:06.167Z,13.00
2023-04-16T06:43:33.892Z,13.00
2023-04-16T06:46:01.609Z,14.07
2023-04-16T06:48:28.374Z,12.83
2023-04-16T06:50:55.262Z,11.60
2023-04-16T06:53:22.067Z,12.33
2023-04-16T06:55:48.675Z,11.87
2023-04-16T06:58:15.388Z,10.80
2023-04-16T07:00:42.054Z,10.80
2023-04-16T07:03:08.883Z,11.50
2023-04-16T07:05:35.760Z,11.23
2023-04-16T07:08:02.530Z,11.80
2023-04-16T07:10:29.243Z,11.80
2023-04-16T07:12:56.130Z,10.73
2023-04-16T07:15:22.766Z,11.37
2023-04-16T07:17:49.420Z,11.13
2023-04-16T07:20:16.314Z,10.77
2023-04-16T07:22:43.551Z,12.20
2023-04-16T07:25:10.378Z,11.80
2023-04-16T07:27:37.087Z,12.70
2023-04-16T07:30:05.384Z,11.80
2023-04-16T07:32:32.212Z,11.03
2023-04-16T07:34:58.924Z,10.90
2023-04-16T07:37:25.885Z,10.67
2023-04-16T07:39:53.133Z,10.63
2023-04-16T07:42:19.886Z,9.50
2023-04-16T07:44:46.574Z,9.60
2023-04-16T07:47:14.046Z,9.80
2023-04-16T07:49:41.173Z,9.40
2023-04-16T07:52:07.887Z,9.87
2023-04-16T07:54:34.586Z,9.53
2023-04-16T07:57:02.067Z,8.83
2023-04-16T07:59:29.292Z,8.37
2023-04-16T08:01:56.518Z,9.80
2023-04-16T08:04:25.629Z,8.73
2023-04-16T08:06:53.135Z,7.07
2023-04-16T08:09:20.710Z,8.87
2023-04-16T08:11:49.338Z,6.97
2023-04-16T08:14:17.495Z,7.50
2023-04-16T08:16:44.367Z,6.43
2023-04-16T08:19:11.524Z,6.33
2023-04-16T08:21:38.393Z,5.80
2023-04-16T08:24:05.359Z,5.60
2023-04-16T08:26:32.058Z,5.50
2023-04-16T08:28:58.758Z,5.97
2023-04-16T08:31:28.423Z,5.30
2023-04-16T08:33:55.369Z,6.13
2023-04-16T08:36:28.078Z,6.47
2023-04-16T08:38:55.076Z,5.97
2023-04-16T08:41:21.972Z,4.77
2023-04-16T08:43:48.797Z,5.07
2023-04-16T08:46:16.158Z,5.53
2023-04-16T08:48:44.123Z,5.43
2023-04-16T08:51:12.498Z,4.53
2023-04-16T08:53:49.468Z,4.30
2023-04-16T08:56:16.363Z,3.47
2023-04-16T08:58:43.118Z,3.30
2023-04-16T09:01:11.527Z,3.60
2023-04-16T09:03:38.380Z,3.50
2023-04-16T09:06:06.377Z,3.90
2023-04-16T09:08:33.076Z,3.90
2023-04-16T09:10:59.805Z,3.60
2023-04-16T09:13:26.562Z,3.70
2023-04-16T09:15:57.124Z,3.30
2023-04-16T09:18:24.689Z,4.20
2023-04-16T09:20:52.137Z,3.87
2023-04-16T09:23:22.187Z,5.07
2023-04-16T09:25:50.124Z,3.00
2023-04-16T09:28:35.860Z,2.80
2023-04-16T09:31:13.778Z,4.63
2023-04-16T09:33:41.283Z,3.83
2023-04-16T09:36:08.047Z,3.80
2023-04-16T09:38:50.587Z,4.17
2023-04-16T09:41:17.579Z,3.17
2023-04-16T09:43:58.981Z,4.20
2023-04-16T09:46:35.253Z,3.33
2023-04-16T09:49:05.721Z,3.60
2023-04-16T09:51:36.830Z,4.10
2023-04-16T09:54:04.743Z,2.80
2023-04-16T09:56:36.104Z,3.00
2023-04-16T09:59:02.829Z,3.00
2023-04-16T10:01:29.563Z,2.50
2023-04-16T10:04:00.465Z,2.73
2023-04-16T10:06:30.358Z,2.80
2023-04-16T10:08:57.515Z,2.70
2023-04-16T10:11:24.288Z,2.43
2023-04-16T10:13:51.143Z,2.53
2023-04-16T10:16:18.318Z,3.00
2023-04-16T10:18:45.459Z,2.70
2023-04-16T10:21:13.011Z,3.33
2023-04-16T10:23:40.084Z,2.87
2023-04-16T10:26:06.765Z,3.30
2023-04-16T10:28:35.790Z,4.40
2023-04-16T10:31:03.248Z,3.43
2023-04-16T10:33:35.240Z,3.37
2023-04-16T10:36:09.872Z,3.50
2023-04-16T10:38:41.146Z,4.30
2023-04-16T10:41:09.534Z,3.57
2023-04-16T10:43:59.482Z,3.27
2023-04-16T10:46:27.228Z,5.00
2023-04-16T10:48:54.402Z,3.33
2023-04-16T10:51:25.067Z,4.17
2023-04-16T10:53:53.292Z,3.63
2023-04-16T10:56:23.622Z,3.80
2023-04-16T10:58:51.122Z,4.67
2023-04-16T11:01:19.040Z,5.67
2023-04-16T11:03:49.278Z,4.37
2023-04-16T11:06:17.930Z,4.93
2023-04-16T11:08:54.084Z,4.33
2023-04-16T11:11:22.145Z,4.20
2023-04-16T11:13:49.033Z,4.07
2023-04-16T11:16:16.612Z,4.10
2023-04-16T11:18:51.396Z,4.50
2023-04-16T11:21:19.162Z,4.83
2023-04-16T11:23:55.808Z,5.17
2023-04-16T11:26:26.568Z,5.40
2023-04-16T11:28:53.987Z,4.53
2023-04-16T11:31:22.512Z,4.20
2023-04-16T11:33:49.916Z,3.97
2023-04-16T11:36:16.792Z,4.00
2023-04-16T11:38:43.604Z,4.33
2023-04-16T11:41:11.266Z,4.50
2023-04-16T11:43:39.225Z,4.50
2023-04-16T11:46:20.038Z,4.17
2023-04-16T11:48:51.889Z,4.27
2023-04-16T11:51:20.887Z,10.53
2023-04-16T11:53:50.671Z,13.57
2023-04-16T11:56:31.311Z,4.80
2023-04-16T11:59:17.196Z,16.13
2023-04-16T12:01:49.635Z,9.90
2023-04-16T12:04:20.926Z,4.50
2023-04-16T12:07:08.101Z,5.90
2023-04-16T12:09:37.868Z,5.13
2023-04-16T12:12:07.184Z,4.27
2023-04-16T12:14:34.024Z,4.67
2023-04-16T12:17:22.309Z,5.07
2023-04-16T12:19:52.713Z,6.37
2023-04-16T12:22:27.370Z,5.67
2023-04-16T12:25:04.788Z,6.40
2023-04-16T12:27:53.880Z,7.73
2023-04-16T12:30:23.059Z,7.13
2023-04-16T12:33:08.849Z,5.50
2023-04-16T12:35:35.784Z,5.80
2023-04-16T12:38:03.663Z,5.70
2023-04-16T12:40:31.041Z,7.00
2023-04-16T12:42:58.117Z,6.40
2023-04-16T12:45:24.983Z,6.73
2023-04-16T12:47:52.029Z,7.60
2023-04-16T12:50:19.095Z,7.00
2023-04-16T12:52:46.114Z,7.20
2023-04-16T12:55:14.220Z,7.43
2023-04-16T12:57:41.151Z,7.13
2023-04-16T13:00:10.917Z,7.43
2023-04-16T13:02:38.531Z,7.03
2023-04-16T13:05:05.834Z,7.43
2023-04-16T13:07:34.097Z,6.97
2023-04-16T13:10:01.000Z,5.97
2023-04-16T13:12:29.474Z,6.00
2023-04-16T13:14:56.325Z,5.87
2023-04-16T13:17:24.247Z,6.33
2023-04-16T13:19:53.945Z,6.27
2023-04-16T13:22:20.944Z,6.93
2023-04-16T13:24:47.677Z,5.80
2023-04-16T13:27:17.633Z,6.47
2023-04-16T13:29:44.920Z,6.10
2023-04-16T13:32:14.669Z,5.80
2023-04-16T13:34:44.097Z,5.53
2023-04-16T13:37:10.837Z,5.70
2023-04-16T13:39:37.642Z,6.37
2023-04-16T14:01:05.856Z,7.23
2023-04-16T14:03:37.949Z,7.20
2023-04-16T14:06:04.947Z,7.73
2023-04-16T14:08:31.594Z,7.23
2023-04-16T14:10:59.491Z,6.53
2023-04-16T14:13:26.323Z,7.07
2023-04-16T14:15:55.851Z,7.20
2023-04-16T14:18:23.792Z,7.37
2023-04-16T14:20:50.854Z,7.63
2023-04-16T14:23:17.608Z,8.10
2023-04-16T14:25:44.429Z,7.53
2023-04-16T14:28:13.635Z,7.33
2023-04-16T14:30:43.565Z,7.83
2023-04-16T14:33:11.511Z,7.57
2023-04-16T14:35:38.388Z,7.80
2023-04-16T14:38:05.222Z,7.70
2023-04-16T14:40:32.115Z,8.20
2023-04-16T14:42:59.251Z,7.83
2023-04-16T14:45:27.280Z,7.37
2023-04-16T14:47:54.884Z,8.37
2023-04-16T14:50:21.575Z,8.40
2023-04-16T14:52:48.567Z,7.87
2023-04-16T14:55:15.515Z,8.00
2023-04-16T14:57:42.503Z,7.87
2023-04-16T15:00:11.959Z,7.87
2023-04-16T15:02:38.831Z,7.53
2023-04-16T15:05:07.918Z,7.70
2023-04-16T15:07:34.633Z,8.27
2023-04-16T15:10:03.943Z,7.27
2023-04-16T15:12:31.042Z,7.33
2023-04-16T15:14:59.953Z,7.00
2023-04-16T15:17:28.015Z,7.50
2023-04-16T15:19:55.937Z,6.50
2023-04-16T15:22:22.645Z,7.07
2023-04-16T15:24:51.995Z,7.37
2023-04-16T15:27:19.461Z,6.80
2023-04-16T15:29:47.041Z,7.67
2023-04-16T15:32:14.891Z,6.77
2023-04-16T15:34:41.674Z,7.60
2023-04-16T15:37:08.514Z,7.53
2023-04-16T15:39:35.322Z,6.73
2023-04-16T15:42:05.874Z,7.10
2023-04-16T15:44:36.017Z,7.13
2023-04-16T15:47:03.840Z,7.03
2023-04-16T15:49:30.910Z,7.53
2023-04-16T15:52:01.233Z,7.20
2023-04-16T15:54:28.152Z,7.20
2023-04-16T15:56:54.805Z,46.40
2023-04-16T15:59:21.674Z,7.47
2023-04-16T16:01:48.490Z,7.10
2023-04-16T16:04:16.555Z,22.70
2023-04-16T16:06:43.503Z,10.73
2023-04-16T16:09:11.043Z,12.57
2023-04-16T16:11:39.572Z,8.30
2023-04-16T16:14:07.695Z,12.17
2023-04-16T16:16:34.891Z,50.00
2023-04-16T16:19:01.809Z,14.80
2023-04-16T16:21:30.595Z,9.63
2023-04-16T16:23:58.069Z,7.77
2023-04-16T16:26:24.683Z,7.30
2023-04-16T16:28:51.929Z,8.17
2023-04-16T16:31:21.771Z,11.30
2023-04-16T16:33:48.713Z,19.13
2023-04-16T16:36:15.646Z,11.83
2023-04-16T16:38:43.316Z,26.77
2023-04-16T16:41:10.100Z,20.90
2023-04-16T16:43:38.433Z,8.90
2023-04-16T16:46:07.848Z,9.33
2023-04-16T16:48:35.432Z,9.80
2023-04-16T16:51:02.108Z,8.90
2023-04-16T16:53:29.659Z,8.10
2023-04-16T16:55:56.411Z,8.00
2023-04-16T16:58:24.026Z,8.37
2023-04-16T17:00:52.488Z,8.30
2023-04-16T17:03:19.876Z,10.03
2023-04-16T17:05:46.803Z,32.50
2023-04-16T17:08:14.039Z,9.23
2023-04-16T17:10:40.705Z,8.40
2023-04-16T17:13:07.599Z,9.23
2023-04-16T17:15:35.683Z,9.73
2023-04-16T17:18:03.552Z,9.70
2023-04-16T17:20:30.464Z,8.83
2023-04-16T17:22:57.272Z,7.73
2023-04-16T17:25:24.305Z,9.47
2023-04-16T17:27:51.234Z,7.93
2023-04-16T17:30:18.196Z,7.97
2023-04-16T17:32:45.215Z,7.97
2023-04-16T17:35:13.928Z,8.43
2023-04-16T17:37:41.490Z,8.73
2023-04-16T17:40:08.818Z,8.20
2023-04-16T17:42:36.202Z,8.27
2023-04-16T17:45:04.425Z,8.10
2023-04-16T17:47:31.623Z,7.67
2023-04-16T17:49:59.029Z,7.70
2023-04-16T17:52:27.798Z,8.60
2023-04-16T17:55:00.523Z,10.27
2023-04-16T17:57:29.864Z,11.47
2023-04-16T17:59:57.139Z,34.30
2023-04-16T18:02:24.273Z,19.60
2023-04-16T18:04:51.690Z,16.23
2023-04-16T18:07:18.644Z,18.60
2023-04-16T18:09:45.329Z,13.33
2023-04-16T18:12:12.944Z,13.90
2023-04-16T18:14:40.798Z,11.77
2023-04-16T18:17:09.501Z,9.83
2023-04-16T18:19:36.633Z,13.23
2023-04-16T18:22:03.526Z,16.30
2023-04-16T18:24:31.648Z,18.20
2023-04-16T18:26:59.359Z,17.27
2023-04-16T18:29:26.466Z,13.77
2023-04-16T18:31:55.731Z,13.63
2023-04-16T18:34:26.296Z,15.93
2023-04-16T18:36:53.687Z,14.43
2023-04-16T18:39:20.635Z,18.23
2023-04-16T18:41:50.075Z,16.63
2023-04-16T18:44:17.819Z,20.13
2023-04-16T18:46:45.484Z,28.77
2023-04-16T18:49:14.148Z,27.80
2023-04-16T18:51:42.151Z,27.70
2023-04-16T18:54:09.951Z,24.07
2023-04-16T18:56:36.944Z,25.53
2023-04-16T18:59:03.952Z,38.33
2023-04-16T19:01:31.239Z,36.57
2023-04-16T19:03:58.226Z,38.20
2023-04-16T19:06:24.946Z,47.63
2023-04-16T19:08:52.586Z,36.47
2023-04-16T19:11:21.157Z,26.03
2023-04-16T19:13:47.946Z,17.23
2023-04-16T19:16:14.931Z,14.87
2023-04-16T19:18:45.975Z,11.73
2023-04-16T19:21:12.705Z,10.50
2023-04-16T19:23:39.357Z,10.60
2023-04-16T19:26:07.678Z,19.40
2023-04-16T19:28:34.571Z,11.27
2023-04-16T19:31:01.405Z,9.67
2023-04-16T19:33:32.680Z,9.27
2023-04-16T19:36:00.568Z,9.07
2023-04-16T19:38:27.375Z,12.93
2023-04-16T19:40:54.413Z,9.70
2023-04-16T19:43:21.619Z,10.37
2023-04-16T19:45:52.573Z,9.73
2023-04-16T19:48:19.748Z,10.37
2023-04-16T19:50:46.590Z,9.97
2023-04-16T19:53:14.184Z,9.03
2023-04-16T19:55:41.411Z,9.67
2023-04-16T19:58:08.530Z,10.17
2023-04-16T20:00:36.495Z,8.90
2023-04-16T20:03:04.716Z,9.17
2023-04-16T20:05:31.374Z,7.77
2023-04-16T20:07:58.058Z,8.60
2023-04-16T20:10:24.760Z,8.83
2023-04-16T20:12:52.301Z,7.67
2023-04-16T20:15:19.075Z,6.83
2023-04-16T20:17:46.362Z,7.40
2023-04-16T20:20:15.803Z,6.27
2023-04-16T20:22:43.234Z,6.00
2023-04-16T20:25:10.143Z,5.17
2023-04-16T20:27:36.941Z,4.93
2023-04-16T20:30:04.219Z,4.73
2023-04-16T20:32:33.132Z,4.73
2023-04-16T20:35:02.071Z,4.33
2023-04-16T20:37:29.632Z,4.30
2023-04-16T20:39:56.485Z,3.63
2023-04-16T20:42:23.677Z,3.90
2023-04-16T20:44:50.648Z,3.90
2023-04-16T20:47:17.446Z,4.70
2023-04-16T20:49:47.386Z,4.17
2023-04-16T20:52:14.544Z,4.97
2023-04-16T20:54:41.662Z,3.97
2023-04-16T20:57:08.433Z,3.83
2023-04-16T20:59:36.327Z,3.63
2023-04-16T21:02:03.222Z,3.47
2023-04-16T21:04:30.133Z,3.90
2023-04-16T21:06:57.195Z,4.10
2023-04-16T21:09:24.237Z,3.60
2023-04-16T21:11:51.349Z,3.90
2023-04-16T21:14:18.789Z,4.00
2023-04-16T21:16:46.162Z,3.87
2023-04-16T21:19:12.983Z,3.83
2023-04-16T21:21:39.734Z,3.83
2023-04-16T21:24:07.961Z,3.77
2023-04-16T21:26:35.551Z,3.90
2023-04-16T21:29:02.285Z,3.80
2023-04-16T21:31:29.530Z,4.03
2023-04-16T21:33:56.204Z,4.03
2023-04-16T21:36:23.350Z,4.37
2023-04-16T21:38:50.085Z,3.90
2023-04-16T21:41:16.766Z,4.10
2023-04-16T21:43:43.748Z,3.97
2023-04-16T21:46:11.303Z,4.23
2023-04-16T21:48:37.878Z,4.20
2023-04-16T21:51:08.138Z,4.53
2023-04-16T21:53:34.836Z,4.40
2023-04-16T21:56:01.535Z,4.67
2023-04-16T21:58:28.224Z,4.23
2023-04-16T22:00:54.927Z,4.40
2023-04-16T22:03:28.168Z,4.47
2023-04-16T22:06:01.145Z,5.07
2023-04-16T22:08:31.338Z,4.90
2023-04-16T22:10:59.277Z,5.53
2023-04-16T22:13:30.090Z,4.70
2023-04-16T22:15:57.788Z,5.50
2023-04-16T22:18:25.797Z,5.40
2023-04-16T22:20:55.706Z,4.80
2023-04-16T22:23:23.032Z,4.90
2023-04-16T22:25:50.738Z,5.20
2023-04-16T22:28:17.391Z,5.10
2023-04-16T22:30:44.017Z,4.87
2023-04-16T22:33:11.336Z,4.97
2023-04-16T22:35:38.858Z,4.97
2023-04-16T22:38:05.727Z,5.23
2023-04-16T22:40:33.187Z,5.70
2023-04-16T22:42:59.781Z,5.13
2023-04-16T22:45:27.371Z,5.73
2023-04-16T22:47:54.133Z,5.13
2023-04-16T22:50:20.891Z,5.30
2023-04-16T22:52:47.492Z,5.40
2023-04-16T22:55:14.586Z,5.10
2023-04-16T22:57:41.377Z,5.23
2023-04-16T23:00:14.816Z,5.93
2023-04-16T23:02:41.646Z,4.87
2023-04-16T23:05:08.734Z,5.60
2023-04-16T23:07:35.493Z,5.50
2023-04-16T23:10:03.418Z,5.83
2023-04-16T23:12:30.087Z,5.93
2023-04-16T23:14:56.913Z,6.27
2023-04-16T23:17:24.367Z,4.90
2023-04-16T23:19:50.978Z,4.40
2023-04-16T23:22:17.565Z,4.70
2023-04-16T23:24:44.265Z,4.70
2023-04-16T23:27:11.035Z,4.50
2023-04-16T23:29:37.609Z,4.70
2023-04-16T23:32:04.732Z,4.90
2023-04-16T23:34:31.366Z,4.87
2023-04-16T23:36:58.235Z,4.83
2023-04-16T23:39:25.705Z,4.40
2023-04-16T23:41:52.281Z,4.80
2023-04-16T23:44:18.905Z,4.60
2023-04-16T23:46:45.586Z,4.90
2023-04-16T23:49:12.274Z,4.50
2023-04-16T23:51:38.993Z,4.60
2023-04-16T23:54:05.686Z,4.67
2023-04-16T23:56:33.068Z,4.33
2023-04-16T23:58:59.748Z,4.67
